Terminal Aerodrome Forecast
Issued by NWS

Home | Current Version | Previous Version | Text Only | Print | Product List | Glossary On
Versions: 1 2 3 4 5 6 7 8 9 10 11 12 13 14 15 16 17 18 19 20 21
362
FTUS43 KAPX 271725
TAFPLN
TAF
KPLN 271725Z 2718/2818 33005KT P6SM OVC010
     FM280100 32005KT 3SM BR OVC008
     FM280700 35005KT 4SM BR OVC010
     FM280800 VRB03KT 5SM BR BKN020
     FM281200 02005KT P6SM SCT035=

USA.gov is the U.S. government's official web portal to all federal, state and local government web resources and services.